Time;durP1;ratioP1;P1;durP2;ratioP2;P2;SDS_P1;SDS_P2;PMS_P1;PMS_P2;Temp;Humidity;BMP_temperature;BMP_pressure;BME280_temperature;BME280_humidity;BME280_pressure;Samples;Min_cycle;Max_cycle;Signal;HPM_P1;HPM_P2
2022/03/11 00:04:09;;;;;;;16.20;9.52;;;;;;;2.54;60.08;96268.84;10274901;28;97112;-78
2022/03/11 00:09:12;;;;;;;13.43;8.23;;;;;;;2.42;59.93;96263.53;10275413;28;97181;-78
2022/03/11 00:14:16;;;;;;;16.15;9.35;;;;;;;2.39;60.11;96256.00;10285198;28;96959;-78
2022/03/11 00:19:19;;;;;;;12.77;8.37;;;;;;;2.30;60.37;96256.56;10277698;28;96742;-78
2022/03/11 00:24:22;;;;;;;17.60;10.57;;;;;;;2.08;61.71;96251.94;10277152;28;96775;-78
2022/03/11 00:29:27;;;;;;;15.25;8.82;;;;;;;1.97;62.57;96251.78;10274705;28;97437;-78
2022/03/11 00:34:30;;;;;;;18.38;10.75;;;;;;;1.97;62.30;96249.19;10288434;28;97057;-78
2022/03/11 00:39:33;;;;;;;15.27;9.20;;;;;;;1.97;62.10;96249.19;10282853;28;96945;-78
2022/03/11 00:44:38;;;;;;;15.65;8.23;;;;;;;1.98;61.83;96237.97;10270178;28;97618;-78
2022/03/11 00:49:41;;;;;;;14.88;8.43;;;;;;;1.98;61.84;96237.97;10270885;28;98622;-78
2022/03/11 00:54:44;;;;;;;16.20;8.82;;;;;;;1.81;62.54;96237.25;10280025;28;97010;-78
2022/03/11 00:59:48;;;;;;;13.98;8.32;;;;;;;1.75;62.66;96235.06;10280657;28;96965;-78
2022/03/11 01:04:51;;;;;;;12.95;8.27;;;;;;;1.65;63.28;96233.97;10280414;28;97324;-78
2022/03/11 01:09:54;;;;;;;13.50;8.38;;;;;;;1.61;63.32;96217.03;10279080;28;97168;-78
2022/03/11 01:14:59;;;;;;;17.42;9.95;;;;;;;1.60;63.01;96225.69;10276922;28;96927;-78
2022/03/11 01:20:02;;;;;;;17.70;8.88;;;;;;;1.58;62.88;96212.09;10293598;28;98888;-78
2022/03/11 01:25:05;;;;;;;16.42;10.25;;;;;;;1.65;63.71;96203.06;10279633;28;96775;-78
2022/03/11 01:30:13;;;;;;;15.10;9.27;;;;;;;1.82;62.62;96200.28;10269631;28;99853;-78
2022/03/11 01:35:17;;;;;;;18.90;10.98;;;;;;;1.87;62.15;96197.44;10270967;28;97588;-78
2022/03/11 01:40:19;;;;;;;17.05;10.00;;;;;;;1.73;62.82;96195.69;10286108;28;97253;-78
2022/03/11 01:45:24;;;;;;;21.27;11.77;;;;;;;1.61;64.51;96183.56;10278084;28;97060;-78
2022/03/11 01:50:26;;;;;;;21.00;10.40;;;;;;;1.67;63.49;96178.03;10274771;28;97081;-78
2022/03/11 01:55:30;;;;;;;18.15;10.32;;;;;;;1.68;63.48;96184.84;10282280;28;97715;-78
2022/03/11 02:00:38;;;;;;;16.77;10.07;;;;;;;1.65;62.86;96172.16;10281998;28;96926;-78
2022/03/11 02:05:43;;;;;;;17.67;10.73;;;;;;;1.64;62.33;96170.50;10270704;28;100747;-78
2022/03/11 02:10:46;;;;;;;19.27;10.05;;;;;;;1.60;62.59;96179.34;10278279;28;97926;-78
2022/03/11 02:15:50;;;;;;;14.18;9.10;;;;;;;1.60;62.53;96174.19;10273375;28;97597;-78
2022/03/11 02:20:53;;;;;;;19.05;10.82;;;;;;;1.25;64.46;96179.75;10273538;28;96991;-78
2022/03/11 02:25:58;;;;;;;21.63;11.40;;;;;;;0.98;65.62;96188.16;10288366;28;99212;-78
2022/03/11 02:31:01;;;;;;;20.02;11.68;;;;;;;0.94;65.80;96177.22;10293549;28;96696;-78
2022/03/11 02:36:04;;;;;;;20.52;11.43;;;;;;;1.18;65.47;96179.28;10279454;28;96907;-78
2022/03/11 02:41:09;;;;;;;19.90;11.15;;;;;;;1.38;64.95;96165.19;10291929;28;96886;-78
2022/03/11 02:46:13;;;;;;;21.70;11.83;;;;;;;1.22;66.12;96164.47;10277107;28;100001;-78
2022/03/11 02:51:16;;;;;;;17.05;10.23;;;;;;;1.26;65.29;96160.78;10291425;28;97171;-78
2022/03/11 02:56:21;;;;;;;18.05;10.75;;;;;;;1.34;65.40;96164.56;10274596;28;97592;-78
2022/03/11 03:01:23;;;;;;;20.93;11.70;;;;;;;1.40;64.79;96168.53;10286419;28;98833;-79
2022/03/11 03:06:26;;;;;;;20.65;11.65;;;;;;;1.51;65.08;96162.72;10262926;28;96813;-78
2022/03/11 03:11:31;;;;;;;17.23;10.30;;;;;;;1.55;64.12;96157.25;10288864;28;98140;-78
2022/03/11 03:16:34;;;;;;;19.13;10.80;;;;;;;1.50;64.50;96154.13;10275827;28;96908;-78
2022/03/11 03:21:37;;;;;;;15.15;9.80;;;;;;;1.47;64.00;96159.50;10271093;28;98442;-78
2022/03/11 03:26:41;;;;;;;16.33;10.38;;;;;;;1.52;63.71;96147.19;10282089;28;97142;-78
2022/03/11 03:31:44;;;;;;;15.10;9.52;;;;;;;1.55;63.50;96149.53;10277930;28;99046;-78
2022/03/11 03:36:47;;;;;;;20.52;11.30;;;;;;;1.55;63.69;96141.81;10280343;28;97937;-78
2022/03/11 03:41:51;;;;;;;17.38;9.88;;;;;;;1.53;63.76;96141.09;10286486;28;97403;-78
2022/03/11 03:46:54;;;;;;;20.53;11.37;;;;;;;1.52;63.78;96147.19;10276748;28;96911;-78
2022/03/11 03:51:57;;;;;;;18.40;11.75;;;;;;;1.30;65.61;96142.50;10282153;28;97647;-78
2022/03/11 03:57:06;;;;;;;17.67;10.35;;;;;;;1.27;65.55;96140.13;10281723;28;97069;-78
2022/03/11 04:02:09;;;;;;;22.70;10.83;;;;;;;1.22;66.19;96143.88;10283034;28;99311;-78
2022/03/11 04:07:13;;;;;;;21.13;12.57;;;;;;;1.24;66.36;96147.19;10288403;28;96892;-78
2022/03/11 04:12:17;;;;;;;18.75;11.60;;;;;;;1.33;66.21;96150.03;10283490;28;97111;-78
2022/03/11 04:17:20;;;;;;;18.02;10.45;;;;;;;1.38;65.89;96152.31;10280318;28;97098;-78
2022/03/11 04:22:23;;;;;;;19.73;11.20;;;;;;;1.39;66.06;96159.13;10284266;28;96798;-78
2022/03/11 04:27:27;;;;;;;18.33;10.63;;;;;;;1.31;67.52;96153.63;10283958;28;96925;-78
2022/03/11 04:32:30;;;;;;;17.02;10.50;;;;;;;1.31;67.07;96151.03;10273709;28;98461;-78
2022/03/11 04:37:33;;;;;;;16.92;10.45;;;;;;;1.24;67.85;96152.34;10289303;28;96902;-78
2022/03/11 04:42:37;;;;;;;15.20;10.15;;;;;;;1.30;67.49;96152.81;10278123;28;98216;-78
2022/03/11 04:47:40;;;;;;;17.33;9.63;;;;;;;1.37;67.48;96155.84;10281399;28;96768;-78
2022/03/11 04:52:43;;;;;;;18.50;11.13;;;;;;;1.48;67.97;96144.88;10281324;28;97007;-78
2022/03/11 04:57:47;;;;;;;15.15;9.77;;;;;;;1.60;67.10;96151.03;10281455;28;96924;-78
2022/03/11 05:02:50;;;;;;;19.98;11.10;;;;;;;1.65;67.65;96146.41;10267828;28;96936;-78
2022/03/11 05:07:54;;;;;;;15.18;9.68;;;;;;;1.71;67.37;96146.03;10270861;28;97831;-78
2022/03/11 05:12:59;;;;;;;13.73;8.93;;;;;;;1.74;67.10;96138.91;10282015;28;97307;-78
2022/03/11 05:18:01;;;;;;;18.48;10.40;;;;;;;1.81;66.84;96131.63;10282279;28;99191;-78
2022/03/11 05:23:04;;;;;;;16.02;9.32;;;;;;;1.90;66.67;96136.22;10276674;28;96806;-78
2022/03/11 05:28:09;;;;;;;14.75;9.35;;;;;;;2.03;65.98;96140.59;10282975;28;96982;-78
2022/03/11 05:33:12;;;;;;;14.13;8.93;;;;;;;2.09;65.72;96130.75;10273235;28;96951;-78
2022/03/11 05:38:15;;;;;;;13.88;9.35;;;;;;;2.11;65.64;96138.34;10271908;28;96903;-78
2022/03/11 05:43:19;;;;;;;16.35;9.60;;;;;;;2.22;65.47;96124.78;10290055;28;96774;-78
2022/03/11 05:48:22;;;;;;;14.32;9.07;;;;;;;2.31;64.97;96122.44;10273301;28;97059;-78
2022/03/11 05:53:25;;;;;;;14.20;8.68;;;;;;;2.37;65.01;96116.06;10283670;28;96751;-78
2022/03/11 05:58:29;;;;;;;14.55;8.68;;;;;;;2.34;64.74;96131.72;10290765;28;98932;-78
2022/03/11 06:03:32;;;;;;;21.50;12.00;;;;;;;2.26;64.84;96141.69;10286183;28;98310;-78
2022/03/11 06:08:35;;;;;;;19.42;11.55;;;;;;;2.14;65.63;96156.19;10285971;28;96919;-78
2022/03/11 06:13:39;;;;;;;17.30;10.15;;;;;;;2.15;65.80;96160.44;10279255;28;96748;-78
2022/03/11 06:18:42;;;;;;;16.38;10.23;;;;;;;2.17;65.26;96148.28;10291790;28;97124;-78
2022/03/11 06:23:45;;;;;;;16.35;10.77;;;;;;;2.12;65.11;96140.81;10282316;28;99380;-78
2022/03/11 06:28:49;;;;;;;15.32;10.30;;;;;;;2.14;65.01;96140.72;10285367;28;97700;-78
2022/03/11 06:33:54;;;;;;;14.63;10.48;;;;;;;2.15;65.21;96134.66;10275503;28;96934;-78
2022/03/11 06:38:57;;;;;;;16.17;10.95;;;;;;;2.06;66.27;96135.22;10289282;28;97563;-78
2022/03/11 06:44:02;;;;;;;15.10;10.48;;;;;;;2.14;66.14;96133.00;10280569;28;97297;-78
2022/03/11 06:49:05;;;;;;;15.98;10.80;;;;;;;2.28;65.58;96124.38;10290055;28;97267;-78
2022/03/11 06:54:08;;;;;;;15.43;10.23;;;;;;;2.44;64.99;96122.47;10285416;28;98752;-78
2022/03/11 06:59:13;;;;;;;15.23;9.63;;;;;;;2.59;65.04;96123.19;10288056;28;96968;-78
2022/03/11 07:04:16;;;;;;;20.58;12.07;;;;;;;2.76;64.85;96145.28;10290493;28;96975;-78
2022/03/11 07:09:19;;;;;;;21.00;12.63;;;;;;;2.91;64.27;96148.63;10287132;28;97930;-78
2022/03/11 07:14:23;;;;;;;22.00;11.98;;;;;;;2.98;64.03;96151.59;10284949;28;96791;-78
2022/03/11 07:19:27;;;;;;;21.05;12.73;;;;;;;3.13;63.64;96149.75;10291913;28;96815;-79
2022/03/11 07:24:30;;;;;;;20.83;12.50;;;;;;;3.25;63.56;96161.81;10275665;28;96960;-78
2022/03/11 07:29:34;;;;;;;25.73;13.82;;;;;;;3.40;63.16;96154.78;10286513;28;96977;-79
2022/03/11 07:34:37;;;;;;;21.73;13.13;;;;;;;3.54;63.83;96151.25;10281189;28;97757;-78
2022/03/11 07:39:40;;;;;;;21.00;12.07;;;;;;;3.67;63.57;96162.34;10283204;28;99148;-79
2022/03/11 07:44:45;;;;;;;27.58;15.27;;;;;;;3.85;63.29;96162.00;10282579;28;97668;-78
2022/03/11 07:49:48;;;;;;;60.53;34.17;;;;;;;3.93;63.52;96162.28;10274075;28;97567;-79
2022/03/11 07:54:51;;;;;;;36.67;20.95;;;;;;;4.03;63.69;96178.78;10284111;28;97833;-78
2022/03/11 07:59:55;;;;;;;26.88;15.90;;;;;;;4.18;63.65;96175.13;10280618;28;97062;-79
2022/03/11 08:04:58;;;;;;;28.92;16.15;;;;;;;4.28;63.89;96182.22;10280312;28;97175;-79
2022/03/11 08:10:01;;;;;;;26.08;16.63;;;;;;;4.32;63.57;96173.31;10271731;28;96817;-78
2022/03/11 08:15:07;;;;;;;27.08;17.10;;;;;;;4.41;63.84;96182.97;10303463;28;96897;-78
2022/03/11 08:20:10;;;;;;;27.55;16.50;;;;;;;4.53;63.47;96182.09;10285762;28;96864;-78
2022/03/11 08:25:14;;;;;;;29.27;16.67;;;;;;;4.59;63.31;96170.47;10270908;28;97174;-78
2022/03/11 08:30:19;;;;;;;32.63;19.75;;;;;;;4.71;63.37;96166.97;10291368;28;96801;-79
2022/03/11 08:35:22;;;;;;;30.98;17.40;;;;;;;4.85;63.59;96168.53;10289800;28;96997;-78
2022/03/11 08:40:26;;;;;;;22.75;15.57;;;;;;;4.98;62.95;96165.88;10291871;28;97136;-78
2022/03/11 08:45:32;;;;;;;25.23;15.35;;;;;;;5.09;62.83;96163.28;10264771;28;96999;-78
2022/03/11 08:50:35;;;;;;;26.55;15.23;;;;;;;5.19;62.46;96147.88;10273386;28;96930;-78
2022/03/11 08:55:38;;;;;;;23.80;15.05;;;;;;;5.28;62.24;96136.81;10283694;28;98629;-78
2022/03/11 09:00:43;;;;;;;23.02;15.05;;;;;;;5.37;61.85;96124.91;10262278;28;96726;-78
2022/03/11 09:05:46;;;;;;;25.67;15.63;;;;;;;5.50;61.89;96127.41;10272781;28;97188;-78
2022/03/11 09:10:49;;;;;;;26.48;16.02;;;;;;;5.61;61.95;96124.78;10281479;28;97767;-78
2022/03/11 09:15:53;;;;;;;28.88;17.58;;;;;;;5.69;61.44;96117.25;10262255;28;96995;-79
2022/03/11 09:20:56;;;;;;;25.38;16.20;;;;;;;5.79;61.72;96100.94;10272497;28;97021;-78
2022/03/11 09:25:59;;;;;;;26.15;17.20;;;;;;;5.92;61.15;96100.81;10280752;28;97507;-79
2022/03/11 09:31:08;;;;;;;27.15;17.55;;;;;;;6.04;61.11;96102.44;10271473;28;96711;-78
2022/03/11 09:36:12;;;;;;;26.77;17.63;;;;;;;6.21;61.00;96082.91;10300330;28;97481;-79
2022/03/11 09:41:17;;;;;;;27.25;17.83;;;;;;;6.33;60.52;96076.72;10294151;28;97008;-79
2022/03/11 09:46:21;;;;;;;;;;;;;;;6.45;60.58;96075.72;10279309;28;96717;-78
2022/03/11 09:51:25;;;;;;;31.15;17.98;;;;;;;6.61;60.33;96062.28;10279797;28;97058;-79
2022/03/11 09:56:29;;;;;;;28.05;18.30;;;;;;;6.73;60.06;96052.66;10293299;28;97099;-79
2022/03/11 10:01:33;;;;;;;31.42;18.45;;;;;;;6.88;59.94;96041.94;10282651;28;97310;-78
2022/03/11 10:06:38;;;;;;;28.40;17.55;;;;;;;7.03;59.89;96038.06;10275740;28;97347;-78
2022/03/11 10:11:41;;;;;;;26.03;17.60;;;;;;;7.22;59.58;96037.31;10297195;28;97027;-78
2022/03/11 10:16:46;;;;;;;26.58;17.10;;;;;;;7.45;59.49;96037.91;10284659;28;96878;-79
2022/03/11 10:21:50;;;;;;;24.27;16.10;;;;;;;7.64;59.02;96025.94;10273891;28;97433;-78
2022/03/11 10:26:58;;;;;;;29.08;17.20;;;;;;;7.85;58.88;96028.41;10305130;28;97422;-78
2022/03/11 10:32:03;;;;;;;22.73;15.57;;;;;;;8.09;58.86;96015.81;10290824;28;96874;-78
2022/03/11 10:37:08;;;;;;;24.25;15.10;;;;;;;8.33;58.61;96012.78;10274833;28;96889;-79
2022/03/11 10:42:17;;;;;;;22.58;15.43;;;;;;;8.52;58.03;96000.69;10284718;28;97470;-79
2022/03/11 10:47:24;;;;;;;23.45;15.38;;;;;;;8.75;57.25;95989.94;10277586;28;96796;-78
2022/03/11 10:52:32;;;;;;;20.95;14.43;;;;;;;8.96;57.08;95987.13;10273226;28;96962;-78
2022/03/11 10:57:36;;;;;;;20.60;14.35;;;;;;;9.18;57.10;95991.13;10282950;28;97480;-79
2022/03/11 11:02:40;;;;;;;20.87;13.77;;;;;;;9.32;56.89;95988.03;10277876;28;96779;-79
2022/03/11 11:07:44;;;;;;;20.77;14.23;;;;;;;9.58;56.22;95982.13;10277051;28;96769;-79
2022/03/11 11:12:47;;;;;;;21.95;14.48;;;;;;;9.80;56.37;95971.28;10271950;28;96893;-79
2022/03/11 11:17:53;;;;;;;18.30;14.18;;;;;;;10.01;55.58;95967.53;10275302;28;96992;-78
2022/03/11 11:22:58;;;;;;;20.30;14.15;;;;;;;10.21;55.01;95966.38;10276956;28;96987;-79
2022/03/11 11:28:04;;;;;;;20.37;15.07;;;;;;;10.45;54.99;95951.84;10280192;28;96858;-79
2022/03/11 11:33:09;;;;;;;19.50;13.73;;;;;;;10.65;54.41;95956.84;10273418;28;96915;-79
2022/03/11 11:38:33;;;;;;;18.50;13.15;;;;;;;10.70;54.52;95952.78;10276759;28;97971;-79
2022/03/11 11:43:36;;;;;;;20.95;14.10;;;;;;;10.81;53.70;95943.88;10280452;28;96961;-79
2022/03/11 11:49:04;;;;;;;17.05;13.07;;;;;;;10.98;53.18;95931.69;10265618;28;97217;-79
2022/03/11 11:54:10;;;;;;;19.55;13.60;;;;;;;11.03;53.21;95931.22;10281572;28;97082;-79
2022/03/11 11:59:17;;;;;;;22.25;14.32;;;;;;;10.99;52.65;95926.31;10279334;28;96990;-79
2022/03/11 12:04:23;;;;;;;18.10;12.60;;;;;;;11.10;52.68;95932.22;10268577;28;96919;-79
2022/03/11 12:09:58;;;;;;;16.65;12.15;;;;;;;11.26;51.91;95910.53;10272448;28;98689;-79
2022/03/11 12:15:17;;;;;;;16.40;11.93;;;;;;;11.43;51.53;95911.41;10148302;28;96960;-79
2022/03/11 12:20:31;;;;;;;15.35;11.45;;;;;;;11.49;51.04;95900.31;10137274;28;98005;-78
2022/03/11 12:25:37;;;;;;;14.88;11.80;;;;;;;11.53;50.63;95897.19;10152064;28;98621;-79
2022/03/11 12:30:52;;;;;;;109.65;26.67;;;;;;;11.63;50.14;95889.22;10159366;28;98188;-78
2022/03/11 12:35:58;;;;;;;17.23;12.90;;;;;;;11.74;49.68;95888.91;10145995;28;97204;-78
2022/03/11 12:41:06;;;;;;;18.50;12.38;;;;;;;11.87;49.23;95879.72;10144490;28;97115;-78
2022/03/11 12:46:10;;;;;;;16.58;12.70;;;;;;;12.02;48.75;95888.53;10137666;28;99100;-78
2022/03/11 12:51:18;;;;;;;18.02;12.68;;;;;;;12.14;48.06;95883.78;10251773;28;99044;-79
2022/03/11 12:56:23;;;;;;;16.40;12.45;;;;;;;12.28;48.27;95882.28;10271626;28;98577;-79
2022/03/11 13:01:28;;;;;;;16.58;12.63;;;;;;;12.38;47.39;95876.88;10266355;28;97805;-79
2022/03/11 13:06:33;;;;;;;17.65;13.23;;;;;;;12.43;47.16;95871.94;10272549;28;97734;-80
2022/03/11 13:11:36;;;;;;;;;;;;;;;12.48;47.90;95880.91;10278893;28;97037;-80
2022/03/11 13:16:39;;;;;;;19.80;13.85;;;;;;;12.54;47.51;95873.38;10285250;28;96989;-80
2022/03/11 13:21:44;;;;;;;18.85;13.40;;;;;;;12.57;47.07;95878.28;10256551;28;98747;-80
2022/03/11 13:26:47;;;;;;;15.85;12.80;;;;;;;12.60;46.79;95870.09;10267087;28;98975;-80
2022/03/11 13:31:50;;;;;;;20.98;14.68;;;;;;;12.65;46.92;95880.88;10266584;28;98218;-80
2022/03/11 13:36:54;;;;;;;20.30;13.70;;;;;;;12.75;46.71;95870.19;10265424;28;98158;-80
2022/03/11 13:41:58;;;;;;;22.23;13.50;;;;;;;12.84;46.76;95885.72;10260887;28;98736;-80
2022/03/11 13:47:03;;;;;;;17.48;12.70;;;;;;;12.92;46.20;95876.22;10268588;28;99059;-80
2022/03/11 13:52:08;;;;;;;;;;;;;;;13.04;47.24;95875.63;10272453;28;97887;-80
2022/03/11 13:57:18;;;;;;;19.50;12.45;;;;;;;13.29;46.66;95878.16;10272291;28;97711;-80
2022/03/11 14:02:23;;;;;;;17.98;12.40;;;;;;;13.80;46.18;95859.25;10269819;28;96871;-80
2022/03/11 14:07:28;;;;;;;16.73;12.40;;;;;;;14.37;46.31;95871.88;10275346;28;96976;-80
2022/03/11 14:12:31;;;;;;;17.47;13.37;;;;;;;14.80;44.52;95855.47;10281421;28;96916;-79
2022/03/11 14:17:34;;;;;;;18.42;12.73;;;;;;;15.01;44.01;95856.47;10272240;28;98699;-79
2022/03/11 14:22:39;;;;;;;14.38;11.95;;;;;;;15.28;43.92;95853.16;10281519;28;98847;-79
2022/03/11 14:27:42;;;;;;;16.17;12.38;;;;;;;15.50;43.15;95847.91;10279226;28;97709;-79
2022/03/11 14:32:46;;;;;;;18.83;13.15;;;;;;;15.77;42.41;95849.00;10276631;28;96925;-79
2022/03/11 14:37:50;;;;;;;16.92;12.38;;;;;;;15.92;41.79;95858.63;10273489;28;99010;-79
2022/03/11 14:42:53;;;;;;;16.13;12.60;;;;;;;15.94;42.46;95861.91;10274530;28;97082;-80
2022/03/11 14:47:56;;;;;;;16.65;12.48;;;;;;;15.85;41.78;95858.56;10285963;28;96986;-79
2022/03/11 14:53:18;;;;;;;16.27;12.23;;;;;;;15.81;41.69;95862.59;10269708;28;98412;-79
2022/03/11 14:58:21;;;;;;;17.52;12.90;;;;;;;15.73;41.98;95854.84;10264615;28;99210;-79
2022/03/11 15:03:24;;;;;;;21.23;14.88;;;;;;;15.55;41.43;95852.59;10284150;28;97208;-79
2022/03/11 15:08:29;;;;;;;19.35;13.73;;;;;;;15.62;41.27;95848.25;10269686;28;102145;-79
2022/03/11 15:13:32;;;;;;;23.35;14.05;;;;;;;15.64;40.98;95838.34;10280544;28;99070;-79
2022/03/11 15:18:35;;;;;;;19.52;13.77;;;;;;;15.52;41.57;95831.94;10278142;28;97007;-79
2022/03/11 15:23:39;;;;;;;19.98;12.93;;;;;;;15.41;41.05;95823.53;10280102;28;97158;-79
2022/03/11 15:28:42;;;;;;;20.70;12.70;;;;;;;15.59;41.25;95819.66;10279464;28;96865;-79
2022/03/11 15:33:45;;;;;;;17.33;12.65;;;;;;;15.73;40.77;95817.97;10280208;28;97530;-80
2022/03/11 15:38:50;;;;;;;17.50;12.93;;;;;;;15.64;40.38;95814.66;10274350;28;96916;-80
2022/03/11 15:43:58;;;;;;;16.65;12.63;;;;;;;15.48;40.84;95818.34;10261441;28;97877;-80
2022/03/11 15:49:01;;;;;;;17.88;12.60;;;;;;;15.35;40.86;95819.00;10277353;28;98489;-80
2022/03/11 15:54:05;;;;;;;19.23;12.70;;;;;;;15.38;40.97;95816.00;10276043;28;98804;-80
2022/03/11 15:59:08;;;;;;;18.15;12.30;;;;;;;15.45;40.50;95808.97;10273968;28;96963;-80
2022/03/11 16:04:11;;;;;;;17.50;11.45;;;;;;;15.57;40.42;95813.75;10270327;28;97084;-80
2022/03/11 16:09:16;;;;;;;15.38;11.65;;;;;;;15.75;40.06;95803.59;10269671;28;97242;-79
2022/03/11 16:14:19;;;;;;;21.20;12.85;;;;;;;15.90;39.76;95808.78;10273719;28;96918;-79
2022/03/11 16:19:40;;;;;;;20.40;12.40;;;;;;;15.84;40.06;95805.09;10275876;28;98338;-79
2022/03/11 16:24:44;;;;;;;17.27;13.18;;;;;;;15.74;39.87;95799.34;10254020;28;100931;-79
2022/03/11 16:30:02;;;;;;;16.85;11.55;;;;;;;15.60;39.89;95798.41;10274524;28;97954;-79
2022/03/11 16:35:06;;;;;;;18.48;12.52;;;;;;;15.46;39.59;95802.72;10267139;28;98801;-80
2022/03/11 16:40:12;;;;;;;;;;;;;;;15.27;40.77;95809.44;10280657;28;98438;-80
2022/03/11 16:45:14;;;;;;;21.20;12.70;;;;;;;15.05;40.44;95813.84;10272536;28;98079;-80
2022/03/11 16:50:17;;;;;;;18.30;12.68;;;;;;;14.60;40.94;95813.13;10263883;28;98534;-80
2022/03/11 16:55:22;;;;;;;19.10;13.32;;;;;;;14.32;40.81;95800.63;10271334;28;97341;-80
2022/03/11 17:00:25;;;;;;;18.85;13.07;;;;;;;14.09;41.47;95815.63;10275668;28;97763;-80
2022/03/11 17:05:29;;;;;;;22.25;13.10;;;;;;;13.95;41.30;95812.00;10275257;28;102211;-80
2022/03/11 17:10:33;;;;;;;19.52;12.98;;;;;;;13.84;41.54;95823.75;10274709;28;97255;-80
2022/03/11 17:15:37;;;;;;;21.02;14.07;;;;;;;13.65;41.99;95821.63;10279047;28;97270;-80
2022/03/11 17:20:40;;;;;;;20.52;13.75;;;;;;;13.30;42.60;95826.50;10283813;28;96973;-80
2022/03/11 17:25:45;;;;;;;19.45;12.85;;;;;;;13.24;42.57;95828.81;10281400;28;100869;-79
2022/03/11 17:30:48;;;;;;;22.27;13.82;;;;;;;13.07;42.50;95837.78;10282054;28;96874;-79
2022/03/11 17:35:51;;;;;;;21.63;12.95;;;;;;;12.68;43.97;95846.44;10288875;28;98148;-79
2022/03/11 17:40:56;;;;;;;19.50;13.13;;;;;;;12.33;44.25;95851.16;10280955;28;97520;-80
2022/03/11 17:46:00;;;;;;;21.23;13.60;;;;;;;12.20;44.58;95862.19;10284808;28;96794;-79
2022/03/11 17:51:07;;;;;;;20.33;14.57;;;;;;;11.95;45.32;95858.75;10267754;28;97154;-79
2022/03/11 17:56:13;;;;;;;16.92;11.73;;;;;;;11.61;46.53;95866.81;10273767;28;97053;-80
2022/03/11 18:01:17;;;;;;;20.65;13.00;;;;;;;11.25;47.29;95860.03;10295012;28;97180;-79
2022/03/11 18:06:20;;;;;;;21.80;12.60;;;;;;;11.17;47.61;95871.31;10304507;28;98578;-79
2022/03/11 18:11:26;;;;;;;22.65;11.95;;;;;;;11.29;47.36;95869.19;10291923;28;97137;-79
2022/03/11 18:16:30;;;;;;;24.33;15.90;;;;;;;11.22;47.44;95881.25;10288164;28;99330;-80
2022/03/11 18:21:34;;;;;;;24.38;13.90;;;;;;;11.23;47.46;95885.53;10283469;28;96861;-79
2022/03/11 18:26:38;;;;;;;19.35;12.13;;;;;;;11.22;48.12;95889.09;10279470;28;96981;-79
2022/03/11 18:31:43;;;;;;;19.98;13.45;;;;;;;11.20;47.82;95891.06;10286201;28;97732;-79
2022/03/11 18:36:47;;;;;;;25.83;16.00;;;;;;;11.05;48.49;95903.13;10281542;28;96898;-79
2022/03/11 18:41:52;;;;;;;18.90;13.88;;;;;;;10.93;48.52;95905.19;10269172;28;96942;-79
2022/03/11 18:46:56;;;;;;;23.48;13.88;;;;;;;10.76;49.50;95913.00;10275896;28;97506;-79
2022/03/11 18:52:00;;;;;;;19.15;14.13;;;;;;;10.70;49.47;95915.41;10287189;28;96831;-79
2022/03/11 18:57:05;;;;;;;25.80;18.15;;;;;;;10.60;49.52;95921.56;10284723;28;97254;-79
2022/03/11 19:02:10;;;;;;;19.85;14.07;;;;;;;10.15;51.03;95914.78;10282026;28;98493;-79
2022/03/11 19:07:14;;;;;;;25.17;16.45;;;;;;;10.05;51.49;95924.50;10273666;28;97488;-79
2022/03/11 19:12:19;;;;;;;25.10;16.07;;;;;;;9.92;51.48;95931.88;10278657;28;97422;-79
2022/03/11 19:17:23;;;;;;;19.77;14.70;;;;;;;9.98;51.04;95932.09;10272616;28;96829;-78
2022/03/11 19:22:27;;;;;;;20.43;13.70;;;;;;;9.97;51.13;95930.47;10280287;28;97117;-79
2022/03/11 19:27:34;;;;;;;21.23;14.10;;;;;;;9.90;51.58;95946.88;10295445;28;97781;-79
2022/03/11 19:32:40;;;;;;;20.13;13.25;;;;;;;9.85;51.73;95948.16;10285904;28;100531;-79
2022/03/11 19:37:44;;;;;;;23.35;14.25;;;;;;;9.86;51.77;95959.41;10281586;28;96731;-79
2022/03/11 19:42:49;;;;;;;21.48;13.57;;;;;;;9.82;52.65;95969.31;10291760;28;98515;-79
2022/03/11 19:47:54;;;;;;;25.33;18.88;;;;;;;9.75;52.70;95978.72;10278790;28;97029;-79
2022/03/11 19:52:58;;;;;;;22.40;14.60;;;;;;;9.60;53.08;95980.19;10290674;28;97371;-79
2022/03/11 19:58:03;;;;;;;18.83;13.60;;;;;;;9.34;53.59;95993.91;10278711;28;97144;-79
2022/03/11 20:03:07;;;;;;;;;;;;;;;9.15;53.59;95997.44;10277546;28;97157;-78
2022/03/11 20:08:12;;;;;;;20.83;12.63;;;;;;;9.17;53.39;96012.94;10288550;28;100344;-79
2022/03/11 20:13:18;;;;;;;18.80;11.93;;;;;;;9.22;54.13;96015.94;10300472;28;98501;-79
2022/03/11 20:18:22;;;;;;;19.92;12.68;;;;;;;9.28;53.90;96018.78;10299756;28;97307;-79
2022/03/11 20:23:27;;;;;;;25.93;15.60;;;;;;;9.19;54.39;96031.84;10310453;28;96920;-79
2022/03/11 20:28:33;;;;;;;26.77;15.93;;;;;;;9.18;54.18;96038.03;10294516;28;97082;-79
2022/03/11 20:33:38;;;;;;;17.85;12.23;;;;;;;9.28;53.28;96041.41;10271514;28;97052;-79
2022/03/11 20:38:42;;;;;;;14.40;9.48;;;;;;;9.26;52.92;96040.72;10287337;28;99609;-79
2022/03/11 20:43:48;;;;;;;9.90;6.77;;;;;;;9.23;51.80;96047.06;10296697;28;97367;-79
2022/03/11 20:48:52;;;;;;;;;;;;;;;9.22;51.77;96055.84;10285632;28;97906;-78
2022/03/11 20:53:56;;;;;;;7.53;5.30;;;;;;;9.25;50.50;96055.56;10273591;28;99923;-79
2022/03/11 20:59:02;;;;;;;8.13;5.73;;;;;;;9.27;49.56;96063.22;10284368;28;96987;-79
2022/03/11 21:04:05;;;;;;;8.32;4.85;;;;;;;9.30;48.92;96068.16;10265010;28;96726;-79
2022/03/11 21:09:09;;;;;;;8.13;4.97;;;;;;;9.30;48.55;96079.41;10271043;28;96863;-79
2022/03/11 21:14:16;;;;;;;9.35;5.50;;;;;;;9.32;48.06;96068.84;10282180;28;97096;-79
2022/03/11 21:19:20;;;;;;;7.82;5.35;;;;;;;9.35;48.16;96083.34;10267479;28;96816;-79
2022/03/11 21:24:23;;;;;;;9.10;5.78;;;;;;;9.37;47.28;96095.31;10270918;28;97806;-79
2022/03/11 21:29:28;;;;;;;9.07;5.10;;;;;;;9.33;46.97;96096.53;10276571;28;96880;-79
2022/03/11 21:34:31;;;;;;;6.85;4.50;;;;;;;9.36;46.88;96103.25;10280916;28;96886;-79
2022/03/11 21:39:34;;;;;;;8.48;5.03;;;;;;;9.34;46.77;96105.19;10290410;28;96964;-79
2022/03/11 21:44:38;;;;;;;6.30;4.05;;;;;;;9.29;46.95;96093.41;10289517;28;97200;-79
2022/03/11 21:49:41;;;;;;;6.77;4.67;;;;;;;9.32;46.71;96102.72;10288152;28;96817;-79
2022/03/11 21:54:44;;;;;;;6.05;3.97;;;;;;;9.29;46.91;96097.78;10290016;28;96786;-79
2022/03/11 21:59:48;;;;;;;6.22;3.67;;;;;;;9.26;47.07;96103.28;10271479;28;97016;-79
2022/03/11 22:04:52;;;;;;;7.00;3.90;;;;;;;9.21;47.44;96102.88;10265034;28;97782;-79
2022/03/11 22:09:58;;;;;;;5.63;3.38;;;;;;;9.19;47.18;96107.44;10277195;28;97145;-79
2022/03/11 22:15:05;;;;;;;5.15;3.78;;;;;;;9.24;47.21;96100.00;10268927;28;96989;-79
2022/03/11 22:20:08;;;;;;;5.40;3.55;;;;;;;9.23;47.17;96098.38;10271711;28;96886;-79
2022/03/11 22:25:12;;;;;;;5.30;3.33;;;;;;;9.11;47.84;96106.38;10272587;28;97256;-79
2022/03/11 22:30:16;;;;;;;5.00;3.20;;;;;;;9.16;47.51;96113.75;10269262;28;101645;-79
2022/03/11 22:35:19;;;;;;;7.07;3.93;;;;;;;9.14;47.43;96109.63;10272224;28;96895;-79
2022/03/11 22:40:25;;;;;;;6.35;3.40;;;;;;;9.13;47.26;96113.22;10283954;28;97073;-79
2022/03/11 22:45:33;;;;;;;5.00;3.75;;;;;;;9.15;47.09;96116.50;10296840;28;96738;-79
2022/03/11 22:50:36;;;;;;;5.60;3.65;;;;;;;9.15;47.33;96116.50;10280919;28;98085;-79
2022/03/11 22:55:45;;;;;;;6.93;4.30;;;;;;;9.08;47.03;96122.28;10282553;28;96949;-79
2022/03/11 23:00:51;;;;;;;5.28;3.90;;;;;;;9.05;47.04;96127.75;10281577;28;98239;-79
2022/03/11 23:09:29;;;;;;;5.75;4.22;;;;;;;9.09;47.33;96129.13;10276540;28;101490;-79
2022/03/11 23:11:19;;;;;;;6.82;4.60;;;;;;;9.07;46.90;96131.06;10284091;28;97031;-79
2022/03/11 23:16:23;;;;;;;8.57;5.88;;;;;;;9.03;46.87;96128.88;10270761;28;96977;-79
2022/03/11 23:21:26;;;;;;;8.43;5.78;;;;;;;9.01;47.14;96141.22;10296954;28;96790;-79
2022/03/11 23:26:29;;;;;;;8.02;5.47;;;;;;;9.03;47.26;96140.13;10294987;28;96898;-79